sensor_id;sensor_type;location;lat;lon;timestamp;P1;durP1;ratioP1;P2;durP2;ratioP2
36651;SDS011;53334;51.976;20.144;2023-05-18T00:02:21;8.80;;;3.60;;
36651;SDS011;53334;51.976;20.144;2023-05-18T00:04:57;7.75;;;4.13;;
36651;SDS011;53334;51.976;20.144;2023-05-18T00:07:34;5.95;;;3.63;;
36651;SDS011;53334;51.976;20.144;2023-05-18T00:10:08;7.32;;;4.10;;
36651;SDS011;53334;51.976;20.144;2023-05-18T00:12:42;6.13;;;3.55;;
36651;SDS011;53334;51.976;20.144;2023-05-18T00:15:15;8.05;;;3.22;;
36651;SDS011;53334;51.976;20.144;2023-05-18T00:17:48;5.50;;;3.72;;
36651;SDS011;53334;51.976;20.144;2023-05-18T00:20:24;5.28;;;3.03;;
36651;SDS011;53334;51.976;20.144;2023-05-18T00:22:59;6.82;;;3.65;;
36651;SDS011;53334;51.976;20.144;2023-05-18T00:25:33;8.30;;;4.13;;
36651;SDS011;53334;51.976;20.144;2023-05-18T00:30:42;9.10;;;4.10;;
36651;SDS011;53334;51.976;20.144;2023-05-18T00:33:15;9.73;;;3.63;;
36651;SDS011;53334;51.976;20.144;2023-05-18T00:35:48;7.90;;;3.20;;
36651;SDS011;53334;51.976;20.144;2023-05-18T00:38:23;8.32;;;3.70;;
36651;SDS011;53334;51.976;20.144;2023-05-18T00:40:56;4.82;;;3.20;;
36651;SDS011;53334;51.976;20.144;2023-05-18T00:43:30;6.95;;;3.35;;
36651;SDS011;53334;51.976;20.144;2023-05-18T00:46:03;6.15;;;3.45;;
36651;SDS011;53334;51.976;20.144;2023-05-18T00:48:37;5.95;;;3.13;;
36651;SDS011;53334;51.976;20.144;2023-05-18T00:51:10;4.97;;;3.10;;
36651;SDS011;53334;51.976;20.144;2023-05-18T00:53:45;7.43;;;3.75;;
36651;SDS011;53334;51.976;20.144;2023-05-18T00:56:19;6.25;;;2.83;;
36651;SDS011;53334;51.976;20.144;2023-05-18T00:58:54;7.22;;;2.97;;
36651;SDS011;53334;51.976;20.144;2023-05-18T01:01:29;5.45;;;3.47;;
36651;SDS011;53334;51.976;20.144;2023-05-18T01:04:05;4.65;;;3.10;;
36651;SDS011;53334;51.976;20.144;2023-05-18T01:06:40;5.65;;;2.97;;
36651;SDS011;53334;51.976;20.144;2023-05-18T01:09:18;5.05;;;3.45;;
36651;SDS011;53334;51.976;20.144;2023-05-18T01:11:54;4.40;;;2.72;;
36651;SDS011;53334;51.976;20.144;2023-05-18T01:14:36;7.07;;;3.25;;
36651;SDS011;53334;51.976;20.144;2023-05-18T01:17:19;4.70;;;2.90;;
36651;SDS011;53334;51.976;20.144;2023-05-18T01:20:03;5.57;;;3.35;;
36651;SDS011;53334;51.976;20.144;2023-05-18T01:26:28;4.32;;;2.70;;
36651;SDS011;53334;51.976;20.144;2023-05-18T01:29:08;4.38;;;3.03;;
36651;SDS011;53334;51.976;20.144;2023-05-18T01:31:44;5.15;;;2.88;;
36651;SDS011;53334;51.976;20.144;2023-05-18T01:34:17;7.82;;;3.30;;
36651;SDS011;53334;51.976;20.144;2023-05-18T01:36:51;5.35;;;3.28;;
36651;SDS011;53334;51.976;20.144;2023-05-18T01:39:24;5.20;;;2.75;;
36651;SDS011;53334;51.976;20.144;2023-05-18T01:42:00;4.95;;;3.40;;
36651;SDS011;53334;51.976;20.144;2023-05-18T01:44:38;5.90;;;3.15;;
36651;SDS011;53334;51.976;20.144;2023-05-18T01:47:15;5.30;;;2.78;;
36651;SDS011;53334;51.976;20.144;2023-05-18T01:49:50;5.93;;;3.25;;
36651;SDS011;53334;51.976;20.144;2023-05-18T01:52:32;6.65;;;3.15;;
36651;SDS011;53334;51.976;20.144;2023-05-18T01:55:09;5.80;;;2.80;;
36651;SDS011;53334;51.976;20.144;2023-05-18T01:57:47;4.38;;;2.80;;
36651;SDS011;53334;51.976;20.144;2023-05-18T02:00:21;4.38;;;2.60;;
36651;SDS011;53334;51.976;20.144;2023-05-18T02:02:55;6.60;;;3.60;;
36651;SDS011;53334;51.976;20.144;2023-05-18T02:05:29;8.68;;;3.15;;
36651;SDS011;53334;51.976;20.144;2023-05-18T02:08:03;4.63;;;2.55;;
36651;SDS011;53334;51.976;20.144;2023-05-18T02:10:37;5.07;;;2.65;;
36651;SDS011;53334;51.976;20.144;2023-05-18T02:13:12;3.90;;;2.60;;
36651;SDS011;53334;51.976;20.144;2023-05-18T02:15:46;4.13;;;2.85;;
36651;SDS011;53334;51.976;20.144;2023-05-18T02:18:19;2.55;;;2.28;;
36651;SDS011;53334;51.976;20.144;2023-05-18T02:20:56;4.13;;;2.85;;
36651;SDS011;53334;51.976;20.144;2023-05-18T02:23:30;3.88;;;2.75;;
36651;SDS011;53334;51.976;20.144;2023-05-18T02:26:04;4.22;;;2.40;;
36651;SDS011;53334;51.976;20.144;2023-05-18T02:28:39;3.97;;;2.47;;
36651;SDS011;53334;51.976;20.144;2023-05-18T02:31:12;6.25;;;2.83;;
36651;SDS011;53334;51.976;20.144;2023-05-18T02:33:46;3.88;;;2.20;;
36651;SDS011;53334;51.976;20.144;2023-05-18T02:36:19;5.93;;;2.72;;
36651;SDS011;53334;51.976;20.144;2023-05-18T02:38:53;6.47;;;2.88;;
36651;SDS011;53334;51.976;20.144;2023-05-18T02:41:27;4.90;;;2.40;;
36651;SDS011;53334;51.976;20.144;2023-05-18T02:44:02;4.28;;;2.58;;
36651;SDS011;53334;51.976;20.144;2023-05-18T02:46:35;4.38;;;3.03;;
36651;SDS011;53334;51.976;20.144;2023-05-18T02:49:10;3.97;;;2.50;;
36651;SDS011;53334;51.976;20.144;2023-05-18T02:51:44;3.97;;;2.63;;
36651;SDS011;53334;51.976;20.144;2023-05-18T02:54:18;4.90;;;2.72;;
36651;SDS011;53334;51.976;20.144;2023-05-18T02:56:51;2.88;;;2.00;;
36651;SDS011;53334;51.976;20.144;2023-05-18T02:59:37;5.25;;;2.67;;
36651;SDS011;53334;51.976;20.144;2023-05-18T03:02:11;3.22;;;2.60;;
36651;SDS011;53334;51.976;20.144;2023-05-18T03:04:47;3.70;;;2.30;;
36651;SDS011;53334;51.976;20.144;2023-05-18T03:07:24;5.13;;;2.42;;
36651;SDS011;53334;51.976;20.144;2023-05-18T03:10:01;3.33;;;2.00;;
36651;SDS011;53334;51.976;20.144;2023-05-18T03:12:36;4.50;;;3.08;;
36651;SDS011;53334;51.976;20.144;2023-05-18T03:15:11;3.80;;;2.20;;
36651;SDS011;53334;51.976;20.144;2023-05-18T03:17:46;3.67;;;2.20;;
36651;SDS011;53334;51.976;20.144;2023-05-18T03:20:21;3.33;;;2.60;;
36651;SDS011;53334;51.976;20.144;2023-05-18T03:22:54;5.03;;;2.40;;
36651;SDS011;53334;51.976;20.144;2023-05-18T03:25:28;5.15;;;2.80;;
36651;SDS011;53334;51.976;20.144;2023-05-18T03:28:04;5.20;;;3.10;;
36651;SDS011;53334;51.976;20.144;2023-05-18T03:30:40;5.72;;;2.35;;
36651;SDS011;53334;51.976;20.144;2023-05-18T03:33:14;4.43;;;2.88;;
36651;SDS011;53334;51.976;20.144;2023-05-18T03:35:47;2.22;;;1.70;;
36651;SDS011;53334;51.976;20.144;2023-05-18T03:38:23;3.90;;;2.60;;
36651;SDS011;53334;51.976;20.144;2023-05-18T03:41:02;7.05;;;2.83;;
36651;SDS011;53334;51.976;20.144;2023-05-18T03:43:36;4.03;;;2.53;;
36651;SDS011;53334;51.976;20.144;2023-05-18T03:46:12;2.88;;;1.80;;
36651;SDS011;53334;51.976;20.144;2023-05-18T03:48:45;3.53;;;2.08;;
36651;SDS011;53334;51.976;20.144;2023-05-18T03:51:23;3.10;;;2.40;;
36651;SDS011;53334;51.976;20.144;2023-05-18T03:53:59;4.03;;;2.35;;
36651;SDS011;53334;51.976;20.144;2023-05-18T03:56:32;2.45;;;2.08;;
36651;SDS011;53334;51.976;20.144;2023-05-18T03:59:06;2.88;;;2.13;;
36651;SDS011;53334;51.976;20.144;2023-05-18T04:01:41;3.33;;;2.20;;
36651;SDS011;53334;51.976;20.144;2023-05-18T04:04:15;3.22;;;2.40;;
36651;SDS011;53334;51.976;20.144;2023-05-18T04:06:54;4.38;;;2.63;;
36651;SDS011;53334;51.976;20.144;2023-05-18T04:09:27;2.40;;;2.05;;
36651;SDS011;53334;51.976;20.144;2023-05-18T04:12:01;5.00;;;2.20;;
36651;SDS011;53334;51.976;20.144;2023-05-18T04:14:35;3.13;;;2.45;;
36651;SDS011;53334;51.976;20.144;2023-05-18T04:17:10;6.05;;;2.45;;
36651;SDS011;53334;51.976;20.144;2023-05-18T04:19:44;2.55;;;2.00;;
36651;SDS011;53334;51.976;20.144;2023-05-18T04:22:17;3.30;;;2.10;;
36651;SDS011;53334;51.976;20.144;2023-05-18T04:24:50;5.88;;;3.55;;
36651;SDS011;53334;51.976;20.144;2023-05-18T04:27:25;4.90;;;2.45;;
36651;SDS011;53334;51.976;20.144;2023-05-18T04:30:00;7.68;;;3.30;;
36651;SDS011;53334;51.976;20.144;2023-05-18T04:32:35;4.95;;;2.22;;
36651;SDS011;53334;51.976;20.144;2023-05-18T04:35:09;2.90;;;2.03;;
36651;SDS011;53334;51.976;20.144;2023-05-18T04:37:43;6.22;;;2.80;;
36651;SDS011;53334;51.976;20.144;2023-05-18T04:40:21;3.92;;;2.40;;
36651;SDS011;53334;51.976;20.144;2023-05-18T04:42:55;2.83;;;1.90;;
36651;SDS011;53334;51.976;20.144;2023-05-18T04:45:33;5.45;;;2.47;;
36651;SDS011;53334;51.976;20.144;2023-05-18T04:48:08;4.05;;;1.80;;
36651;SDS011;53334;51.976;20.144;2023-05-18T04:50:41;3.22;;;2.53;;
36651;SDS011;53334;51.976;20.144;2023-05-18T04:53:16;4.25;;;2.95;;
36651;SDS011;53334;51.976;20.144;2023-05-18T04:55:49;3.20;;;2.38;;
36651;SDS011;53334;51.976;20.144;2023-05-18T04:58:23;3.10;;;2.15;;
36651;SDS011;53334;51.976;20.144;2023-05-18T05:01:00;4.85;;;2.28;;
36651;SDS011;53334;51.976;20.144;2023-05-18T05:03:35;5.40;;;3.05;;
36651;SDS011;53334;51.976;20.144;2023-05-18T05:06:09;4.50;;;2.40;;
36651;SDS011;53334;51.976;20.144;2023-05-18T05:11:16;7.22;;;2.35;;
36651;SDS011;53334;51.976;20.144;2023-05-18T05:13:50;8.23;;;2.13;;
36651;SDS011;53334;51.976;20.144;2023-05-18T05:16:24;6.45;;;2.33;;
36651;SDS011;53334;51.976;20.144;2023-05-18T05:19:00;7.80;;;2.55;;
36651;SDS011;53334;51.976;20.144;2023-05-18T05:21:34;5.57;;;2.28;;
36651;SDS011;53334;51.976;20.144;2023-05-18T05:24:07;4.57;;;2.00;;
36651;SDS011;53334;51.976;20.144;2023-05-18T05:26:41;9.13;;;2.17;;
36651;SDS011;53334;51.976;20.144;2023-05-18T05:29:14;11.20;;;2.50;;
36651;SDS011;53334;51.976;20.144;2023-05-18T05:31:47;7.57;;;2.65;;
36651;SDS011;53334;51.976;20.144;2023-05-18T05:34:22;5.82;;;2.20;;
36651;SDS011;53334;51.976;20.144;2023-05-18T05:36:56;4.63;;;2.47;;
36651;SDS011;53334;51.976;20.144;2023-05-18T05:39:29;2.85;;;2.28;;
36651;SDS011;53334;51.976;20.144;2023-05-18T05:42:04;6.35;;;2.42;;
36651;SDS011;53334;51.976;20.144;2023-05-18T05:44:38;6.38;;;2.50;;
36651;SDS011;53334;51.976;20.144;2023-05-18T05:47:12;6.60;;;2.33;;
36651;SDS011;53334;51.976;20.144;2023-05-18T05:49:47;5.35;;;2.55;;
36651;SDS011;53334;51.976;20.144;2023-05-18T05:52:21;7.05;;;2.95;;
36651;SDS011;53334;51.976;20.144;2023-05-18T05:57:28;6.47;;;2.40;;
36651;SDS011;53334;51.976;20.144;2023-05-18T06:00:03;12.68;;;2.92;;
36651;SDS011;53334;51.976;20.144;2023-05-18T06:02:51;5.93;;;2.30;;
36651;SDS011;53334;51.976;20.144;2023-05-18T06:05:33;12.02;;;4.20;;
36651;SDS011;53334;51.976;20.144;2023-05-18T06:08:09;7.95;;;2.85;;
36651;SDS011;53334;51.976;20.144;2023-05-18T06:10:42;5.75;;;2.63;;
36651;SDS011;53334;51.976;20.144;2023-05-18T06:15:55;10.85;;;1.90;;
36651;SDS011;53334;51.976;20.144;2023-05-18T06:18:28;4.57;;;2.47;;
36651;SDS011;53334;51.976;20.144;2023-05-18T06:21:08;6.30;;;2.47;;
36651;SDS011;53334;51.976;20.144;2023-05-18T06:23:41;5.63;;;2.70;;
36651;SDS011;53334;51.976;20.144;2023-05-18T06:26:45;9.43;;;2.50;;
36651;SDS011;53334;51.976;20.144;2023-05-18T06:29:37;6.05;;;3.53;;
36651;SDS011;53334;51.976;20.144;2023-05-18T06:32:29;6.72;;;2.35;;
36651;SDS011;53334;51.976;20.144;2023-05-18T06:35:04;6.82;;;2.30;;
36651;SDS011;53334;51.976;20.144;2023-05-18T06:37:39;4.35;;;2.15;;
36651;SDS011;53334;51.976;20.144;2023-05-18T06:40:14;5.90;;;3.05;;
36651;SDS011;53334;51.976;20.144;2023-05-18T06:42:47;3.70;;;1.80;;
36651;SDS011;53334;51.976;20.144;2023-05-18T06:45:44;8.02;;;2.13;;
36651;SDS011;53334;51.976;20.144;2023-05-18T06:48:36;6.90;;;2.88;;
36651;SDS011;53334;51.976;20.144;2023-05-18T06:51:10;4.95;;;2.35;;
36651;SDS011;53334;51.976;20.144;2023-05-18T06:53:45;5.45;;;2.25;;
36651;SDS011;53334;51.976;20.144;2023-05-18T06:56:18;6.78;;;2.45;;
36651;SDS011;53334;51.976;20.144;2023-05-18T06:58:52;5.72;;;2.20;;
36651;SDS011;53334;51.976;20.144;2023-05-18T07:01:25;4.55;;;2.35;;
36651;SDS011;53334;51.976;20.144;2023-05-18T07:04:02;3.05;;;2.03;;
36651;SDS011;53334;51.976;20.144;2023-05-18T07:09:11;9.90;;;2.85;;
36651;SDS011;53334;51.976;20.144;2023-05-18T07:11:44;4.63;;;2.10;;
36651;SDS011;53334;51.976;20.144;2023-05-18T07:14:17;8.10;;;2.72;;
36651;SDS011;53334;51.976;20.144;2023-05-18T07:16:50;4.30;;;2.30;;
36651;SDS011;53334;51.976;20.144;2023-05-18T07:19:24;3.78;;;2.45;;
36651;SDS011;53334;51.976;20.144;2023-05-18T07:21:57;7.22;;;2.38;;
36651;SDS011;53334;51.976;20.144;2023-05-18T07:24:32;8.20;;;2.60;;
36651;SDS011;53334;51.976;20.144;2023-05-18T07:27:05;7.40;;;2.60;;
36651;SDS011;53334;51.976;20.144;2023-05-18T07:29:38;5.78;;;2.10;;
36651;SDS011;53334;51.976;20.144;2023-05-18T07:32:12;8.32;;;2.35;;
36651;SDS011;53334;51.976;20.144;2023-05-18T07:34:45;6.38;;;2.38;;
36651;SDS011;53334;51.976;20.144;2023-05-18T07:37:18;7.25;;;1.95;;
36651;SDS011;53334;51.976;20.144;2023-05-18T07:39:53;5.90;;;2.25;;
36651;SDS011;53334;51.976;20.144;2023-05-18T07:42:27;5.07;;;2.42;;
36651;SDS011;53334;51.976;20.144;2023-05-18T07:45:00;9.15;;;3.35;;
36651;SDS011;53334;51.976;20.144;2023-05-18T07:47:34;4.38;;;2.20;;
36651;SDS011;53334;51.976;20.144;2023-05-18T07:50:08;6.82;;;2.03;;
36651;SDS011;53334;51.976;20.144;2023-05-18T07:52:42;7.80;;;2.60;;
36651;SDS011;53334;51.976;20.144;2023-05-18T07:55:16;5.53;;;2.10;;
36651;SDS011;53334;51.976;20.144;2023-05-18T07:57:50;8.48;;;3.15;;
36651;SDS011;53334;51.976;20.144;2023-05-18T08:00:23;6.75;;;1.83;;
36651;SDS011;53334;51.976;20.144;2023-05-18T08:02:57;4.82;;;2.67;;
36651;SDS011;53334;51.976;20.144;2023-05-18T08:05:31;4.68;;;2.10;;
36651;SDS011;53334;51.976;20.144;2023-05-18T08:08:04;7.30;;;2.50;;
36651;SDS011;53334;51.976;20.144;2023-05-18T08:10:40;7.68;;;2.72;;
36651;SDS011;53334;51.976;20.144;2023-05-18T08:13:13;10.55;;;2.55;;
36651;SDS011;53334;51.976;20.144;2023-05-18T08:15:46;6.30;;;1.90;;
36651;SDS011;53334;51.976;20.144;2023-05-18T08:18:40;4.57;;;2.08;;
36651;SDS011;53334;51.976;20.144;2023-05-18T08:21:13;7.22;;;2.30;;
36651;SDS011;53334;51.976;20.144;2023-05-18T08:23:47;6.43;;;2.05;;
36651;SDS011;53334;51.976;20.144;2023-05-18T08:26:22;4.15;;;1.90;;
36651;SDS011;53334;51.976;20.144;2023-05-18T08:29:19;8.80;;;2.28;;
36651;SDS011;53334;51.976;20.144;2023-05-18T08:31:52;4.32;;;1.98;;
36651;SDS011;53334;51.976;20.144;2023-05-18T08:34:26;1.70;;;1.42;;
36651;SDS011;53334;51.976;20.144;2023-05-18T08:37:00;5.30;;;1.77;;
36651;SDS011;53334;51.976;20.144;2023-05-18T08:39:34;6.97;;;1.45;;
36651;SDS011;53334;51.976;20.144;2023-05-18T08:42:10;7.70;;;1.90;;
36651;SDS011;53334;51.976;20.144;2023-05-18T08:44:54;6.45;;;2.10;;
36651;SDS011;53334;51.976;20.144;2023-05-18T08:47:42;3.83;;;1.65;;
36651;SDS011;53334;51.976;20.144;2023-05-18T08:50:17;10.38;;;2.00;;
36651;SDS011;53334;51.976;20.144;2023-05-18T08:52:55;5.13;;;1.60;;
36651;SDS011;53334;51.976;20.144;2023-05-18T08:55:32;3.67;;;1.73;;
36651;SDS011;53334;51.976;20.144;2023-05-18T08:58:09;4.50;;;1.70;;
36651;SDS011;53334;51.976;20.144;2023-05-18T09:00:49;9.30;;;1.98;;
36651;SDS011;53334;51.976;20.144;2023-05-18T09:03:24;3.25;;;1.90;;
36651;SDS011;53334;51.976;20.144;2023-05-18T09:05:58;13.82;;;2.30;;
36651;SDS011;53334;51.976;20.144;2023-05-18T09:08:34;5.85;;;1.70;;
36651;SDS011;53334;51.976;20.144;2023-05-18T09:13:43;6.65;;;2.08;;
36651;SDS011;53334;51.976;20.144;2023-05-18T09:16:16;5.13;;;2.00;;
36651;SDS011;53334;51.976;20.144;2023-05-18T09:18:50;6.60;;;1.70;;
36651;SDS011;53334;51.976;20.144;2023-05-18T09:21:23;1.67;;;1.33;;
36651;SDS011;53334;51.976;20.144;2023-05-18T09:23:57;4.38;;;1.60;;
36651;SDS011;53334;51.976;20.144;2023-05-18T09:26:31;3.60;;;1.55;;
36651;SDS011;53334;51.976;20.144;2023-05-18T09:29:15;8.13;;;1.85;;
36651;SDS011;53334;51.976;20.144;2023-05-18T09:34:22;8.68;;;1.70;;
36651;SDS011;53334;51.976;20.144;2023-05-18T09:36:55;6.78;;;1.58;;
36651;SDS011;53334;51.976;20.144;2023-05-18T09:39:29;5.03;;;2.00;;
36651;SDS011;53334;51.976;20.144;2023-05-18T09:42:03;3.45;;;1.40;;
36651;SDS011;53334;51.976;20.144;2023-05-18T09:49:45;4.18;;;1.80;;
36651;SDS011;53334;51.976;20.144;2023-05-18T09:52:19;3.30;;;1.50;;
36651;SDS011;53334;51.976;20.144;2023-05-18T09:54:56;5.10;;;1.40;;
36651;SDS011;53334;51.976;20.144;2023-05-18T09:57:31;2.65;;;1.35;;
36651;SDS011;53334;51.976;20.144;2023-05-18T10:00:13;3.22;;;1.48;;
36651;SDS011;53334;51.976;20.144;2023-05-18T10:02:48;3.13;;;1.40;;
36651;SDS011;53334;51.976;20.144;2023-05-18T10:05:24;4.95;;;1.58;;
36651;SDS011;53334;51.976;20.144;2023-05-18T10:07:59;6.90;;;1.63;;
36651;SDS011;53334;51.976;20.144;2023-05-18T10:10:32;3.75;;;1.80;;
36651;SDS011;53334;51.976;20.144;2023-05-18T10:13:13;4.75;;;1.40;;
36651;SDS011;53334;51.976;20.144;2023-05-18T10:15:51;3.40;;;1.48;;
36651;SDS011;53334;51.976;20.144;2023-05-18T10:18:27;11.60;;;1.90;;
36651;SDS011;53334;51.976;20.144;2023-05-18T10:21:02;2.42;;;1.50;;
36651;SDS011;53334;51.976;20.144;2023-05-18T10:23:37;5.97;;;1.45;;
36651;SDS011;53334;51.976;20.144;2023-05-18T10:26:12;5.70;;;1.48;;
36651;SDS011;53334;51.976;20.144;2023-05-18T10:28:49;6.00;;;1.38;;
36651;SDS011;53334;51.976;20.144;2023-05-18T10:31:26;4.07;;;1.20;;
36651;SDS011;53334;51.976;20.144;2023-05-18T10:34:01;2.55;;;1.33;;
36651;SDS011;53334;51.976;20.144;2023-05-18T10:36:36;3.42;;;1.33;;
36651;SDS011;53334;51.976;20.144;2023-05-18T10:39:10;5.25;;;1.55;;
36651;SDS011;53334;51.976;20.144;2023-05-18T10:41:43;2.15;;;1.30;;
36651;SDS011;53334;51.976;20.144;2023-05-18T10:44:18;7.38;;;1.70;;
36651;SDS011;53334;51.976;20.144;2023-05-18T10:46:54;5.88;;;1.48;;
36651;SDS011;53334;51.976;20.144;2023-05-18T10:49:28;5.55;;;2.10;;
36651;SDS011;53334;51.976;20.144;2023-05-18T10:52:02;8.93;;;3.67;;
36651;SDS011;53334;51.976;20.144;2023-05-18T10:54:36;10.68;;;4.22;;
36651;SDS011;53334;51.976;20.144;2023-05-18T10:57:13;14.18;;;4.90;;
36651;SDS011;53334;51.976;20.144;2023-05-18T10:59:47;14.10;;;4.63;;
36651;SDS011;53334;51.976;20.144;2023-05-18T11:02:22;10.88;;;4.00;;
36651;SDS011;53334;51.976;20.144;2023-05-18T11:04:57;16.75;;;5.15;;
36651;SDS011;53334;51.976;20.144;2023-05-18T11:10:06;10.13;;;4.47;;
36651;SDS011;53334;51.976;20.144;2023-05-18T11:12:41;10.57;;;4.78;;
36651;SDS011;53334;51.976;20.144;2023-05-18T11:15:16;11.80;;;4.55;;
36651;SDS011;53334;51.976;20.144;2023-05-18T11:20:44;9.48;;;4.15;;
36651;SDS011;53334;51.976;20.144;2023-05-18T11:25:51;13.05;;;5.07;;
36651;SDS011;53334;51.976;20.144;2023-05-18T11:30:59;13.05;;;4.65;;
36651;SDS011;53334;51.976;20.144;2023-05-18T11:33:33;7.15;;;3.45;;
36651;SDS011;53334;51.976;20.144;2023-05-18T11:36:09;8.82;;;3.40;;
36651;SDS011;53334;51.976;20.144;2023-05-18T11:38:45;6.78;;;3.47;;
36651;SDS011;53334;51.976;20.144;2023-05-18T11:41:26;9.65;;;3.38;;
36651;SDS011;53334;51.976;20.144;2023-05-18T11:44:04;11.35;;;3.50;;
36651;SDS011;53334;51.976;20.144;2023-05-18T11:46:51;12.60;;;2.88;;
36651;SDS011;53334;51.976;20.144;2023-05-18T11:49:28;6.85;;;2.67;;
36651;SDS011;53334;51.976;20.144;2023-05-18T11:52:04;5.68;;;2.30;;
36651;SDS011;53334;51.976;20.144;2023-05-18T11:54:39;6.70;;;2.30;;
36651;SDS011;53334;51.976;20.144;2023-05-18T11:57:15;9.00;;;2.30;;
36651;SDS011;53334;51.976;20.144;2023-05-18T11:59:52;6.28;;;2.38;;
36651;SDS011;53334;51.976;20.144;2023-05-18T12:02:29;5.93;;;2.30;;
36651;SDS011;53334;51.976;20.144;2023-05-18T12:05:07;4.95;;;2.30;;
36651;SDS011;53334;51.976;20.144;2023-05-18T12:07:41;8.73;;;2.28;;
36651;SDS011;53334;51.976;20.144;2023-05-18T12:10:15;4.35;;;2.40;;
36651;SDS011;53334;51.976;20.144;2023-05-18T12:12:49;4.07;;;1.88;;
36651;SDS011;53334;51.976;20.144;2023-05-18T12:15:24;6.15;;;2.10;;
36651;SDS011;53334;51.976;20.144;2023-05-18T12:17:59;9.40;;;1.83;;
36651;SDS011;53334;51.976;20.144;2023-05-18T12:20:33;4.60;;;2.28;;
36651;SDS011;53334;51.976;20.144;2023-05-18T12:23:10;4.80;;;1.67;;
36651;SDS011;53334;51.976;20.144;2023-05-18T12:25:43;9.73;;;1.90;;
36651;SDS011;53334;51.976;20.144;2023-05-18T12:28:16;5.22;;;1.85;;
36651;SDS011;53334;51.976;20.144;2023-05-18T12:30:50;8.32;;;1.88;;
36651;SDS011;53334;51.976;20.144;2023-05-18T12:33:27;10.73;;;2.83;;
36651;SDS011;53334;51.976;20.144;2023-05-18T12:36:02;6.03;;;2.08;;
36651;SDS011;53334;51.976;20.144;2023-05-18T12:38:35;4.75;;;2.35;;
36651;SDS011;53334;51.976;20.144;2023-05-18T12:41:08;3.38;;;1.95;;
36651;SDS011;53334;51.976;20.144;2023-05-18T12:43:41;6.78;;;2.10;;
36651;SDS011;53334;51.976;20.144;2023-05-18T12:46:14;6.22;;;2.08;;
36651;SDS011;53334;51.976;20.144;2023-05-18T12:48:57;5.10;;;1.80;;
36651;SDS011;53334;51.976;20.144;2023-05-18T12:51:33;5.93;;;1.60;;
36651;SDS011;53334;51.976;20.144;2023-05-18T12:54:07;4.82;;;1.63;;
36651;SDS011;53334;51.976;20.144;2023-05-18T12:56:53;4.78;;;2.28;;
36651;SDS011;53334;51.976;20.144;2023-05-18T12:59:32;2.22;;;1.45;;
36651;SDS011;53334;51.976;20.144;2023-05-18T13:02:06;3.75;;;1.77;;
36651;SDS011;53334;51.976;20.144;2023-05-18T13:04:39;2.25;;;1.63;;
36651;SDS011;53334;51.976;20.144;2023-05-18T13:07:14;2.70;;;1.75;;
36651;SDS011;53334;51.976;20.144;2023-05-18T13:09:47;5.05;;;2.05;;
36651;SDS011;53334;51.976;20.144;2023-05-18T13:12:33;4.80;;;2.03;;
36651;SDS011;53334;51.976;20.144;2023-05-18T13:15:11;3.45;;;1.73;;
36651;SDS011;53334;51.976;20.144;2023-05-18T13:17:55;6.78;;;1.70;;
36651;SDS011;53334;51.976;20.144;2023-05-18T13:23:08;4.53;;;2.10;;
36651;SDS011;53334;51.976;20.144;2023-05-18T13:25:43;3.17;;;1.38;;
36651;SDS011;53334;51.976;20.144;2023-05-18T13:28:18;3.45;;;1.83;;
36651;SDS011;53334;51.976;20.144;2023-05-18T13:30:52;3.00;;;1.20;;
36651;SDS011;53334;51.976;20.144;2023-05-18T13:33:25;1.95;;;1.30;;
36651;SDS011;53334;51.976;20.144;2023-05-18T13:35:59;6.70;;;2.05;;
36651;SDS011;53334;51.976;20.144;2023-05-18T13:41:08;3.33;;;1.40;;
36651;SDS011;53334;51.976;20.144;2023-05-18T13:43:42;3.25;;;1.52;;
36651;SDS011;53334;51.976;20.144;2023-05-18T13:46:15;3.60;;;1.45;;
36651;SDS011;53334;51.976;20.144;2023-05-18T13:48:50;3.60;;;1.65;;
36651;SDS011;53334;51.976;20.144;2023-05-18T13:51:23;2.92;;;1.60;;
36651;SDS011;53334;51.976;20.144;2023-05-18T13:53:58;1.55;;;1.45;;
36651;SDS011;53334;51.976;20.144;2023-05-18T13:56:32;2.47;;;1.33;;
36651;SDS011;53334;51.976;20.144;2023-05-18T13:59:05;4.45;;;1.65;;
36651;SDS011;53334;51.976;20.144;2023-05-18T14:01:38;2.05;;;1.25;;
36651;SDS011;53334;51.976;20.144;2023-05-18T14:04:12;3.45;;;1.15;;
36651;SDS011;53334;51.976;20.144;2023-05-18T14:06:46;1.48;;;1.20;;
36651;SDS011;53334;51.976;20.144;2023-05-18T14:09:20;1.75;;;1.20;;
36651;SDS011;53334;51.976;20.144;2023-05-18T14:11:53;2.45;;;1.10;;
36651;SDS011;53334;51.976;20.144;2023-05-18T14:14:26;1.45;;;1.17;;
36651;SDS011;53334;51.976;20.144;2023-05-18T14:17:00;1.35;;;1.13;;
36651;SDS011;53334;51.976;20.144;2023-05-18T14:19:33;4.70;;;1.30;;
36651;SDS011;53334;51.976;20.144;2023-05-18T14:22:07;2.25;;;1.52;;
36651;SDS011;53334;51.976;20.144;2023-05-18T14:24:42;4.75;;;1.73;;
36651;SDS011;53334;51.976;20.144;2023-05-18T14:27:15;0.88;;;0.88;;
36651;SDS011;53334;51.976;20.144;2023-05-18T14:29:50;3.70;;;1.48;;
36651;SDS011;53334;51.976;20.144;2023-05-18T14:32:23;2.25;;;1.20;;
36651;SDS011;53334;51.976;20.144;2023-05-18T14:34:57;1.42;;;1.20;;
36651;SDS011;53334;51.976;20.144;2023-05-18T14:37:30;2.00;;;1.30;;
36651;SDS011;53334;51.976;20.144;2023-05-18T14:40:06;2.75;;;1.17;;
36651;SDS011;53334;51.976;20.144;2023-05-18T14:42:40;1.25;;;1.10;;
36651;SDS011;53334;51.976;20.144;2023-05-18T14:45:13;2.55;;;1.35;;
36651;SDS011;53334;51.976;20.144;2023-05-18T14:47:47;2.42;;;1.30;;
36651;SDS011;53334;51.976;20.144;2023-05-18T14:50:21;2.60;;;1.40;;
36651;SDS011;53334;51.976;20.144;2023-05-18T14:52:54;1.40;;;1.30;;
36651;SDS011;53334;51.976;20.144;2023-05-18T14:55:28;2.08;;;1.20;;
36651;SDS011;53334;51.976;20.144;2023-05-18T14:58:02;2.78;;;1.20;;
36651;SDS011;53334;51.976;20.144;2023-05-18T15:00:36;1.88;;;1.13;;
36651;SDS011;53334;51.976;20.144;2023-05-18T15:03:09;2.15;;;1.20;;
36651;SDS011;53334;51.976;20.144;2023-05-18T15:05:43;1.02;;;1.00;;
36651;SDS011;53334;51.976;20.144;2023-05-18T15:08:16;1.30;;;1.10;;
36651;SDS011;53334;51.976;20.144;2023-05-18T15:10:50;1.73;;;1.10;;
36651;SDS011;53334;51.976;20.144;2023-05-18T15:13:24;1.33;;;0.95;;
36651;SDS011;53334;51.976;20.144;2023-05-18T15:15:57;2.67;;;1.08;;
36651;SDS011;53334;51.976;20.144;2023-05-18T15:18:31;4.78;;;1.20;;
36651;SDS011;53334;51.976;20.144;2023-05-18T15:21:04;1.83;;;1.20;;
36651;SDS011;53334;51.976;20.144;2023-05-18T15:23:37;1.30;;;1.10;;
36651;SDS011;53334;51.976;20.144;2023-05-18T15:26:12;2.45;;;1.38;;
36651;SDS011;53334;51.976;20.144;2023-05-18T15:28:45;1.90;;;1.25;;
36651;SDS011;53334;51.976;20.144;2023-05-18T15:31:19;2.30;;;1.13;;
36651;SDS011;53334;51.976;20.144;2023-05-18T15:33:53;1.38;;;0.93;;
36651;SDS011;53334;51.976;20.144;2023-05-18T15:36:26;2.33;;;1.20;;
36651;SDS011;53334;51.976;20.144;2023-05-18T15:38:59;2.28;;;1.50;;
36651;SDS011;53334;51.976;20.144;2023-05-18T15:41:37;1.10;;;1.00;;
36651;SDS011;53334;51.976;20.144;2023-05-18T15:44:10;2.40;;;1.50;;
36651;SDS011;53334;51.976;20.144;2023-05-18T15:46:43;1.17;;;1.02;;
36651;SDS011;53334;51.976;20.144;2023-05-18T15:49:16;3.13;;;1.23;;
36651;SDS011;53334;51.976;20.144;2023-05-18T15:51:52;1.50;;;1.17;;
36651;SDS011;53334;51.976;20.144;2023-05-18T15:54:25;1.27;;;1.17;;
36651;SDS011;53334;51.976;20.144;2023-05-18T15:56:59;5.82;;;1.17;;
36651;SDS011;53334;51.976;20.144;2023-05-18T15:59:33;1.00;;;0.90;;
36651;SDS011;53334;51.976;20.144;2023-05-18T16:02:06;3.10;;;1.30;;
36651;SDS011;53334;51.976;20.144;2023-05-18T16:04:39;1.48;;;1.10;;